Time;durP1;ratioP1;P1;durP2;ratioP2;P2;SDS_P1;SDS_P2;PMS_P1;PMS_P2;Temp;Humidity;BMP_temperature;BMP_pressure;BME280_temperature;BME280_humidity;BME280_pressure;Samples;Min_cycle;Max_cycle;Signal;HPM_P1;HPM_P2
2023/11/22 00:01:10;;;;;;;10.80;6.82;;;;;;;-144.05;79.22;57059.09;5004736;22;20486;-81
2023/11/22 00:03:36;;;;;;;11.77;7.13;;;;;;;-144.05;79.16;57069.72;4955458;28;20106;-82
2023/11/22 00:06:03;;;;;;;9.70;6.93;;;;;;;-144.05;79.34;57059.09;4975565;28;20032;-81
2023/11/22 00:08:30;;;;;;;11.82;6.60;;;;;;;-144.05;79.27;57069.72;4979754;28;20023;-81
2023/11/22 00:10:56;;;;;;;9.98;6.95;;;;;;;-144.05;79.23;57080.34;4981418;28;20406;-80
2023/11/22 00:13:23;;;;;;;10.70;6.88;;;;;;;-144.05;79.22;57059.09;4980260;28;20090;-81
2023/11/22 00:15:50;;;;;;;13.10;6.55;;;;;;;-144.05;79.05;57090.97;4979344;28;20030;-80
2023/11/22 00:18:16;;;;;;;10.48;6.60;;;;;;;-144.05;79.29;57065.47;4979802;28;20115;-82
2023/11/22 00:20:42;;;;;;;12.13;7.47;;;;;;;-144.05;79.28;57065.47;4978970;28;20023;-81
2023/11/22 00:23:09;;;;;;;11.23;6.95;;;;;;;-144.05;79.49;57076.09;4979309;28;20467;-82
2023/11/22 00:25:35;;;;;;;10.82;6.18;;;;;;;-144.05;79.47;57069.72;4979617;28;20526;-81
2023/11/22 00:28:02;;;;;;;12.50;6.70;;;;;;;-144.05;79.47;57067.59;4980680;28;20046;-81
2023/11/22 00:30:28;;;;;;;11.85;7.57;;;;;;;-144.05;79.33;57071.84;4978518;28;20030;-81
2023/11/22 00:32:54;;;;;;;9.07;6.47;;;;;;;-144.05;79.53;57018.75;4979560;28;20578;-81
2023/11/22 00:35:20;;;;;;;12.60;7.63;;;;;;;-144.05;79.34;57063.34;4980373;28;20035;-82
2023/11/22 00:37:47;;;;;;;11.00;6.57;;;;;;;-144.05;79.61;57099.47;4979517;28;20098;-81
2023/11/22 00:40:13;;;;;;;13.38;8.43;;;;;;;-144.05;79.82;57084.59;4980543;28;20083;-80
2023/11/22 00:42:42;;;;;;;11.25;7.10;;;;;;;-144.05;79.92;57076.09;4995521;28;20030;-81
2023/11/22 00:45:09;;;;;;;13.02;7.47;;;;;;;-144.05;79.89;57088.84;4979441;28;20130;-83
2023/11/22 00:47:36;;;;;;;13.27;7.70;;;;;;;-144.05;80.22;57073.97;4976014;28;20027;-83
2023/11/22 00:50:04;;;;;;;11.00;7.18;;;5.50;99.90;;;-144.05;80.20;57080.34;4978934;28;20318;-81
2023/11/22 00:52:31;;;;;;;11.18;7.20;;;;;;;-144.05;79.87;57065.47;4980354;28;20027;-82
2023/11/22 00:54:57;;;;;;;14.73;8.10;;;;;;;-144.05;79.73;57065.47;4981097;28;20038;-81
2023/11/22 00:57:23;;;;;;;11.20;7.45;;;;;;;-144.05;79.86;57080.34;4980821;28;20038;-81
2023/11/22 00:59:50;;;;;;;15.73;8.02;;;;;;;-144.05;79.87;57071.84;4980133;28;20034;-79
2023/11/22 01:02:16;;;;;;;14.90;8.27;;;;;;;-144.05;79.54;57076.09;4979678;28;20464;-81
2023/11/22 01:04:42;;;;;;;11.80;7.13;;;;;;;-144.05;79.32;57063.34;4995401;28;20018;-81
2023/11/22 01:07:09;;;;;;;11.88;7.85;;;;;;;-144.05;79.54;57059.09;4997869;28;20672;-82
2023/11/22 01:09:35;;;;;;;12.45;7.47;;;;;;;-144.05;79.64;57025.13;4983806;28;20058;-81
2023/11/22 01:12:01;;;;;;;12.88;8.20;;;;;;;-144.05;79.42;57082.47;4983653;28;20035;-78
2023/11/22 01:14:29;;;;;;;13.10;7.72;;;;;;;-144.05;79.26;57082.47;4985776;28;20061;-77
2023/11/22 01:16:55;;;;;;;11.05;7.05;;;;;;;-144.05;79.36;57078.22;4979684;28;20077;-79
2023/11/22 01:19:22;;;;;;;12.75;7.30;;;;;;;-144.05;79.34;57067.59;4968494;28;20484;-79
2023/11/22 01:21:48;;;;;;;14.38;8.00;;;;;;;-144.05;79.64;57067.59;4975837;28;20038;-78
2023/11/22 01:24:15;;;;;;;13.55;7.80;;;;;;;-144.05;79.63;57067.59;4990339;28;20104;-80
2023/11/22 01:26:41;;;;;;;17.45;7.82;;;;;;;-144.05;79.99;57082.47;4997600;28;20072;-79
2023/11/22 01:29:07;;;;;;;15.80;7.95;;;;;;;-144.05;80.00;57073.97;5001041;28;20034;-79
2023/11/22 01:31:33;;;;;;;14.57;7.65;;;;;;;-144.05;79.98;57086.72;4999838;28;20025;-79
2023/11/22 01:34:00;;;;;;;14.30;8.27;;;;;;;-144.05;80.21;57059.09;4987015;28;20035;-80
2023/11/22 01:36:27;;;;;;;10.65;7.40;;;;;;;-144.05;79.99;57076.09;4977090;28;20031;-82
2023/11/22 01:38:54;;;;;;;12.32;7.70;;;;;;;-144.05;80.56;57071.84;4980046;28;20022;-78
2023/11/22 01:41:21;;;;;;;13.82;9.13;;;;;;;-144.05;80.56;57073.97;4995286;28;20019;-82
2023/11/22 01:43:47;;;;;;;15.60;8.23;;;;;;;-144.05;80.36;57093.09;4994947;28;20114;-81
2023/11/22 01:46:25;;;;;;;12.80;8.57;;;5.40;99.90;;;-144.05;80.49;57082.47;4982584;28;20031;-78
2023/11/22 01:48:54;;;;;;;12.38;8.07;;;5.90;99.90;;;-144.05;80.61;57040.00;4992147;28;20015;-80
2023/11/22 01:51:23;;;;;;;12.65;7.90;;;6.00;99.90;;;-144.05;80.02;57078.22;4989201;28;20030;-77
2023/11/22 01:53:54;;;;;;;11.77;8.10;;;5.90;99.90;;;-144.05;80.02;57056.97;4983627;28;20024;-79
2023/11/22 01:56:28;;;;;;;14.02;8.85;;;;;;;-144.05;79.90;57040.00;4980809;28;20084;-79
2023/11/22 01:58:56;;;;;;;14.02;8.10;;;5.30;99.90;;;-144.05;79.83;57065.47;4995531;28;20476;-81
2023/11/22 02:01:24;;;;;;;14.77;7.95;;;;;;;-144.05;80.07;57093.09;4979389;28;20038;-80
2023/11/22 02:03:52;;;;;;;14.00;8.60;;;;;;;-144.05;79.47;57067.59;4980292;28;20498;-80
2023/11/22 02:06:21;;;;;;;12.20;7.85;;;;;;;-144.05;79.62;57082.47;5031115;28;20098;-79
2023/11/22 02:08:48;;;;;;;11.63;7.22;;;;;;;-144.05;79.82;57095.22;4977894;28;20380;-79
2023/11/22 02:11:22;;;;;;;12.73;7.80;;;;;;;-144.05;79.69;57050.63;4974903;28;20034;-78
2023/11/22 02:13:51;;;;;;;14.45;8.05;;;6.30;99.90;;;-144.05;79.92;57097.34;5004783;28;20027;-79
2023/11/22 02:16:19;;;;;;;16.23;7.50;;;;;;;-144.05;79.50;57084.59;4976870;28;20033;-83
2023/11/22 02:18:47;;;;;;;11.93;7.78;;;5.00;99.90;;;-144.05;78.98;57082.47;4974045;28;20051;-80
2023/11/22 02:21:16;;;;;;;12.10;6.65;;;;;;;-144.05;78.97;57052.75;4973961;28;20034;-80
2023/11/22 02:23:43;;;;;;;10.65;6.65;;;;;;;-144.05;78.55;57076.09;4978993;28;20019;-79
2023/11/22 02:26:09;;;;;;;10.70;6.60;;;;;;;-144.05;78.25;57090.97;4978945;28;20058;-80
2023/11/22 02:28:35;;;;;;;12.63;6.53;;;;;;;-144.05;78.08;57086.72;4978468;28;20027;-79
2023/11/22 02:31:03;;;;;;;11.63;6.80;;;;;;;-144.05;78.39;57056.97;4978011;28;20101;-81
2023/11/22 02:33:29;;;;;;;9.60;6.32;;;;;;;-144.05;78.36;57082.47;5026197;28;20106;-79
2023/11/22 02:35:57;;;;;;;12.38;6.72;;;;;;;-144.05;78.33;57088.84;4978670;28;20022;-82
2023/11/22 02:38:25;;;;;;;12.02;6.35;;;;;;;-144.05;77.99;57095.22;4977474;28;20030;-81
2023/11/22 02:40:52;;;;;;;11.38;6.47;;;;;;;-144.05;78.53;57080.34;4992552;28;20478;-78
2023/11/22 02:43:18;;;;;;;11.05;7.03;;;;;;;-144.05;78.25;57088.84;4977643;28;20034;-81
2023/11/22 02:45:45;;;;;;;9.80;6.07;;;;;;;-144.05;78.22;57056.97;4977515;28;20066;-79
2023/11/22 02:48:11;;;;;;;11.25;6.60;;;;;;;-144.05;78.36;57082.47;5007831;28;20035;-77
2023/11/22 02:50:38;;;;;;;11.32;6.60;;;;;;;-144.05;78.50;57097.34;4977370;28;20648;-78
2023/11/22 02:53:05;;;;;;;13.90;6.20;;;;;;;-144.05;78.64;57086.72;4977211;28;20023;-78
2023/11/22 02:55:31;;;;;;;14.05;7.05;;;;;;;-144.05;78.79;57088.84;4977239;28;20423;-79
2023/11/22 02:57:57;;;;;;;11.68;6.15;;;;;;;-144.05;78.74;57097.34;5013647;28;20034;-78
2023/11/22 03:00:25;;;;;;;12.77;7.18;;;;;;;-144.05;79.08;57101.59;4976521;28;20070;-78
2023/11/22 03:02:53;;;;;;;12.68;6.70;;;;;;;-144.05;78.69;57095.22;5008906;28;20023;-80
2023/11/22 03:05:21;;;;;;;13.07;6.53;;;;;;;-144.05;78.83;57082.47;4974652;28;20044;-79
2023/11/22 03:07:47;;;;;;;16.40;6.75;;;;;;;-144.05;78.82;57076.09;4991473;28;20027;-79
2023/11/22 03:10:13;;;;;;;12.15;6.53;;;;;;;-144.05;79.00;57088.84;4973374;28;20545;-79
2023/11/22 03:12:40;;;;;;;12.85;6.88;;;;;;;-144.05;78.80;57095.22;5012482;28;20071;-79
2023/11/22 03:15:07;;;;;;;13.85;6.72;;;;;;;-144.05;78.78;57101.59;4978686;28;20518;-78
2023/11/22 03:17:33;;;;;;;14.75;5.70;;;;;;;-144.05;78.35;57084.59;4975853;28;20037;-79
2023/11/22 03:20:00;;;;;;;11.10;5.93;;;;;;;-144.05;78.26;57078.22;4975236;28;20647;-80
2023/11/22 03:22:29;;;;;;;8.80;5.18;;;4.10;99.90;;;-144.05;78.31;57071.84;5020776;28;20026;-78
2023/11/22 03:24:58;;;;;;;7.97;4.78;;;;;;;-144.05;78.32;57107.97;4976024;28;20027;-78
2023/11/22 03:27:25;;;;;;;8.13;5.32;;;;;;;-144.05;78.11;57105.84;4977155;28;20030;-78
2023/11/22 03:29:51;;;;;;;11.35;6.20;;;;;;;-144.05;77.78;57080.34;4979893;28;20027;-81
2023/11/22 03:32:17;;;;;;;9.65;5.10;;;;;;;-144.05;77.55;57086.72;4978966;28;20031;-81
2023/11/22 03:34:44;;;;;;;9.10;5.32;;;;;;;-144.05;76.96;57097.34;4978441;28;20460;-82
2023/11/22 03:37:10;;;;;;;11.25;5.35;;;;;;;-144.05;77.33;57095.22;4979163;28;20566;-81
2023/11/22 03:39:37;;;;;;;10.90;5.60;;;;;;;-144.05;76.85;57116.47;4976924;28;20039;-80
2023/11/22 03:42:04;;;;;;;12.15;5.28;;;;;;;-144.05;76.76;57110.09;4992952;28;20139;-79
2023/11/22 03:44:30;;;;;;;7.75;5.03;;;;;;;-144.05;76.62;57078.22;5021978;28;20031;-81
2023/11/22 03:46:56;;;;;;;10.93;5.00;;;;;;;-144.05;76.78;57090.97;4977684;28;20096;-81
2023/11/22 03:49:23;;;;;;;9.00;4.80;;;;;;;-144.05;76.83;57095.22;5020803;28;20037;-79
2023/11/22 03:51:49;;;;;;;8.73;4.65;;;;;;;-144.05;76.46;57090.97;4977012;28;20023;-78
2023/11/22 03:54:15;;;;;;;11.50;5.18;;;;;;;-144.05;76.33;57103.72;4976580;28;20549;-80
2023/11/22 03:56:41;;;;;;;11.10;4.65;;;;;;;-144.05;76.71;57105.84;4976601;28;20031;-79
2023/11/22 03:59:08;;;;;;;11.75;5.13;;;;;;;-144.05;76.21;57097.34;4990831;28;20091;-79
2023/11/22 04:01:34;;;;;;;9.20;4.70;;;;;;;-144.05;76.60;57122.84;4973829;28;20499;-81
2023/11/22 04:04:00;;;;;;;8.90;4.63;;;;;;;-144.05;76.49;57110.09;4976265;28;20023;-79
2023/11/22 04:06:26;;;;;;;7.80;4.35;;;;;;;-144.05;76.53;57129.22;4976398;28;20453;-81
2023/11/22 04:08:53;;;;;;;7.68;5.00;;;;;;;-144.05;76.42;57129.22;4974891;28;20108;-81
2023/11/22 04:11:19;;;;;;;12.18;4.93;;;;;;;-144.05;76.57;57103.72;4977323;28;20084;-78
2023/11/22 04:13:45;;;;;;;8.98;4.18;;;;;;;-144.05;76.46;57076.09;4974994;28;20030;-79
2023/11/22 04:16:12;;;;;;;11.50;4.85;;;;;;;-144.05;76.77;57105.84;4990491;28;20054;-80
2023/11/22 04:18:41;;;;;;;10.45;5.72;;;;;;;-144.05;76.94;57067.59;4975436;28;20094;-80
2023/11/22 04:21:08;;;;;;;9.00;5.05;;;3.50;99.90;;;-144.05;76.82;57093.09;4975659;28;20466;-80
2023/11/22 04:23:36;;;;;;;9.73;5.05;;;3.00;99.90;;;-144.05;76.64;57103.72;4975091;28;20027;-80
2023/11/22 04:26:03;;;;;;;8.68;4.47;;;;;;;-144.05;76.38;57120.72;4974640;28;20027;-80
2023/11/22 04:28:30;;;;;;;12.23;5.60;;;;;;;-144.05;76.68;57112.22;4980793;28;20038;-78
2023/11/22 04:30:57;;;;;;;9.07;4.90;;;;;;;-144.05;77.09;57116.47;5012611;28;20023;-79
2023/11/22 04:33:24;;;;;;;7.28;4.60;;;;;;;-144.05;76.96;57118.59;4973523;28;20085;-78
2023/11/22 04:35:51;;;;;;;9.88;5.45;;;;;;;-144.05;76.88;57107.97;4973426;28;20023;-80
2023/11/22 04:38:17;;;;;;;11.68;5.15;;;;;;;-144.05;77.04;57090.97;4979699;28;20035;-80
2023/11/22 04:40:44;;;;;;;9.38;4.85;;;;;;;-144.05;77.37;57129.22;4979629;28;20018;-80
2023/11/22 04:43:11;;;;;;;8.27;4.38;;;;;;;-144.05;77.48;57107.97;4978875;28;20027;-78
2023/11/22 04:45:37;;;;;;;11.63;5.20;;;;;;;-144.05;77.12;57082.47;4978853;28;20027;-80
2023/11/22 04:48:06;;;;;;;9.80;5.32;;;;;;;-144.05;77.62;57133.44;4996089;28;20025;-80
2023/11/22 04:50:33;;;;;;;8.48;5.28;;;;;;;-144.05;77.22;57133.44;4985318;28;20077;-79
2023/11/22 04:53:01;;;;;;;7.93;5.05;;;;;;;-144.05;76.77;57124.97;4985769;28;20022;-83
2023/11/22 04:55:28;;;;;;;19.02;5.63;;;;;;;-144.05;77.37;57093.09;4975195;28;20127;-79
2023/11/22 04:57:55;;;;;;;9.48;5.05;;;;;;;-144.05;77.20;57120.72;4990494;28;20113;-78
2023/11/22 05:00:24;;;;;;;9.93;5.07;;;2.60;99.90;;;-144.05;76.49;57122.84;4975138;28;20061;-80
2023/11/22 05:02:50;;;;;;;7.30;4.40;;;;;;;-144.05;76.72;57144.06;4975692;28;20098;-79
2023/11/22 05:05:16;;;;;;;11.07;4.97;;;;;;;-144.05;76.40;57116.47;4976490;28;20438;-78
2023/11/22 05:07:44;;;;;;;12.38;4.88;;;;;;;-144.05;76.68;57099.47;4975867;28;20026;-79
2023/11/22 05:10:11;;;;;;;10.50;5.43;;;;;;;-144.05;75.97;57090.97;4976295;28;20061;-77
2023/11/22 05:12:38;;;;;;;7.82;4.90;;;;;;;-144.05;75.87;57114.34;4976628;28;20143;-80
2023/11/22 05:15:06;;;;;;;8.55;4.60;;;;;;;-144.05;76.37;57103.72;4976995;28;20462;-78
2023/11/22 05:17:33;;;;;;;9.77;5.65;;;;;;;-144.05;75.87;57090.97;4975802;28;20469;-77
2023/11/22 05:19:59;;;;;;;9.57;5.40;;;;;;;-144.05;76.12;57095.22;4976505;28;20033;-79
2023/11/22 05:22:26;;;;;;;9.88;5.05;;;;;;;-144.05;76.12;57103.72;4976021;28;20108;-79
2023/11/22 05:24:53;;;;;;;9.10;4.85;;;;;;;-144.05;76.31;57110.09;4977689;28;20084;-79
2023/11/22 05:27:19;;;;;;;9.30;5.05;;;;;;;-144.05;76.28;57127.09;5015718;28;20031;-77
2023/11/22 05:29:45;;;;;;;7.10;4.75;;;;;;;-144.05;75.89;57122.84;4978866;28;20035;-79
2023/11/22 05:32:11;;;;;;;9.02;5.10;;;;;;;-144.05;76.37;57097.34;4976574;28;20409;-79
2023/11/22 05:34:40;;;;;;;8.30;4.63;;;;;;;-144.05;75.68;57133.44;4974440;28;20067;-77
2023/11/22 05:37:06;;;;;;;9.35;4.72;;;;;;;-144.05;75.93;57093.09;5018040;28;20489;-80
2023/11/22 05:39:32;;;;;;;7.18;4.47;;;;;;;-144.05;75.87;57107.97;4973820;28;20062;-79
2023/11/22 05:41:59;;;;;;;8.35;4.28;;;;;;;-144.05;75.55;57099.47;4974115;28;20026;-79
2023/11/22 05:44:26;;;;;;;8.45;4.85;;;;;;;-144.05;75.48;57103.72;4973708;28;20038;-78
2023/11/22 05:46:54;;;;;;;7.30;4.32;;;;;;;-144.05;75.94;57124.97;4975111;28;20152;-79
2023/11/22 05:49:20;;;;;;;9.10;5.15;;;;;;;-144.05;75.96;57090.97;4975155;28;20112;-77
2023/11/22 05:51:46;;;;;;;12.07;5.57;;;;;;;-144.05;75.94;57095.22;4974771;28;20519;-79
2023/11/22 05:54:13;;;;;;;10.45;6.20;;;;;;;-144.05;75.83;57141.94;5026818;28;20054;-78
2023/11/22 05:56:39;;;;;;;8.25;4.90;;;;;;;-144.05;75.97;57127.09;4976638;28;20045;-78
2023/11/22 05:59:05;;;;;;;10.68;4.55;;;;;;;-144.05;75.74;57124.97;4975963;28;20031;-78
2023/11/22 06:01:32;;;;;;;7.53;4.65;;;;;;;-144.05;75.59;57107.97;4982851;28;20096;-78
2023/11/22 06:03:58;;;;;;;9.52;5.40;;;;;;;-144.05;76.04;57086.72;5004286;28;20037;-77
2023/11/22 06:06:24;;;;;;;10.90;5.28;;;;;;;-144.05;76.14;57110.09;4974931;28;20034;-78
2023/11/22 06:08:50;;;;;;;11.10;5.32;;;;;;;-144.05;76.32;57088.84;4990900;28;20491;-78
2023/11/22 06:11:17;;;;;;;11.95;4.90;;;;;;;-144.05;76.81;57116.47;4977208;28;20098;-79
2023/11/22 06:13:43;;;;;;;13.60;4.75;;;;;;;-144.05;76.92;57112.22;4990698;28;20035;-79
2023/11/22 06:16:09;;;;;;;9.63;4.72;;;;;;;-144.05;76.71;57124.97;4993486;28;20058;-78
2023/11/22 06:18:40;;;;;;;9.57;5.45;;;;;;;-144.05;76.76;57124.97;4996556;28;20088;-80
2023/11/22 06:21:08;;;;;;;9.38;5.65;;;3.70;99.90;;;-144.05;76.76;57127.09;4991172;28;20035;-78
2023/11/22 06:23:34;;;;;;;8.20;5.35;;;;;;;-144.05;76.62;57122.84;4975799;28;20039;-79
2023/11/22 06:26:01;;;;;;;10.80;5.85;;;;;;;-144.05;76.22;57080.34;4979989;28;20098;-78
2023/11/22 06:28:28;;;;;;;8.63;5.28;;;;;;;-144.05;76.16;57067.59;5012519;28;20035;-79
2023/11/22 06:30:55;;;;;;;10.23;5.63;;;;;;;-144.05;76.37;57082.47;4994201;28;20121;-79
2023/11/22 06:33:21;;;;;;;7.35;5.30;;;;;;;-144.05;76.25;57101.59;5012698;28;20090;-80
2023/11/22 06:35:47;;;;;;;11.65;5.25;;;;;;;-144.05;76.39;57133.44;4996924;28;20238;-77
2023/11/22 06:38:14;;;;;;;9.50;5.30;;;;;;;-144.05;76.08;57116.47;4978966;28;20037;-80
2023/11/22 06:40:40;;;;;;;9.25;5.03;;;;;;;-144.05;76.28;57116.47;4990400;28;20092;-78
2023/11/22 06:43:06;;;;;;;9.63;5.43;;;;;;;-144.05;76.48;57120.72;5000678;28;20023;-78
2023/11/22 06:45:33;;;;;;;9.23;5.35;;;;;;;-144.05;76.84;57112.22;4981533;28;20022;-78
2023/11/22 06:47:59;;;;;;;8.45;4.75;;;;;;;-144.05;76.94;57129.22;4998972;28;20027;-78
2023/11/22 06:50:25;;;;;;;9.93;5.57;;;;;;;-144.05;77.15;57127.09;4997485;28;20031;-78
2023/11/22 06:52:52;;;;;;;10.68;5.30;;;;;;;-144.05;77.01;57093.09;4981210;28;20031;-79
2023/11/22 06:55:19;;;;;;;10.82;5.10;;;;;;;-144.05;76.71;57099.47;4982924;28;20103;-79
2023/11/22 06:57:45;;;;;;;9.77;5.20;;;;;;;-144.05;77.11;57103.72;4983675;28;21554;-78
2023/11/22 07:00:12;;;;;;;12.52;5.70;;;;;;;-144.05;76.88;57107.97;4999731;28;20053;-78
2023/11/22 07:02:39;;;;;;;10.20;5.10;;;;;;;-144.05;77.08;57105.84;4980520;28;20027;-75
2023/11/22 07:05:08;;;;;;;8.15;4.22;;;;;;;-144.05;77.32;57093.09;4978605;28;20031;-78
2023/11/22 07:07:35;;;;;;;9.40;5.10;;;;;;;-144.05;78.03;57135.56;4977255;28;20041;-78
2023/11/22 07:10:05;;;;;;;9.48;5.13;;;;;;;-144.05;78.15;57122.84;5001521;28;20057;-76
2023/11/22 07:12:34;;;;;;;10.23;5.18;;;;;;;-144.05;78.33;57107.97;5001624;28;20087;-79
2023/11/22 07:15:02;;;;;;;11.45;5.40;;;;;;;-144.05;78.44;57116.47;4990905;28;20034;-76
2023/11/22 07:17:28;;;;;;;9.70;5.38;;;;;;;-144.05;78.24;57110.09;5022484;28;20604;-79
2023/11/22 07:19:55;;;;;;;9.68;5.18;;;;;;;-144.05;78.22;57107.97;4988943;28;20031;-79
2023/11/22 07:22:22;;;;;;;11.38;5.70;;;;;;;-144.05;78.32;57107.97;4981196;28;20034;-79
2023/11/22 07:24:54;;;;;;;10.70;4.85;;;;;;;-144.05;78.53;57088.84;4978755;28;20508;-79
2023/11/22 07:27:22;;;;;;;10.43;5.25;;;;;;;-144.05;78.73;57118.59;4975903;28;20062;-80
2023/11/22 07:29:48;;;;;;;9.88;5.78;;;;;;;-144.05;79.10;57135.56;4980834;28;20026;-80
2023/11/22 07:32:15;;;;;;;10.15;4.43;;;;;;;-144.05;79.22;57114.34;4976820;28;20030;-78
2023/11/22 07:34:41;;;;;;;9.38;5.60;;;;;;;-144.05;79.38;57073.97;5008577;28;20046;-80
2023/11/22 07:37:08;;;;;;;10.45;4.55;;;;;;;-144.05;79.69;57122.84;5002796;28;20122;-79
2023/11/22 07:39:36;;;;;;;8.20;5.25;;;;;;;-144.05;79.83;57120.72;4979186;28;20491;-79
2023/11/22 07:42:08;;;;;;;7.63;5.15;;;3.50;99.90;;;-144.05;79.92;57095.22;4976270;28;20034;-79
2023/11/22 07:44:37;;;;;;;9.63;5.20;;;;;;;-144.05;80.22;57099.47;5001215;28;20035;-79
2023/11/22 07:47:08;;;;;;;13.70;5.72;;;;;;;-144.05;79.70;57103.72;4976748;28;20027;-81
2023/11/22 07:49:38;;;;;;;11.23;5.75;;;;;;;-144.05;79.81;57124.97;4976120;28;20455;-79
2023/11/22 07:52:06;;;;;;;11.32;5.72;;;;;;;-144.05;78.93;57116.47;4994273;28;20102;-80
2023/11/22 07:54:32;;;;;;;12.80;6.38;;;;;;;-144.05;77.63;57099.47;4969484;28;20085;-81
2023/11/22 07:56:58;;;;;;;12.38;5.88;;;;;;;-144.05;77.14;57099.47;4979956;28;20037;-80
2023/11/22 07:59:25;;;;;;;10.30;4.72;;;;;;;-144.05;76.98;57112.22;4983114;28;20019;-81
2023/11/22 08:01:53;;;;;;;10.93;6.13;;;;;;;-144.05;76.24;57099.47;4994805;28;20022;-82
2023/11/22 08:04:19;;;;;;;11.57;5.78;;;;;;;-144.05;76.29;57114.34;4978203;28;20023;-81
2023/11/22 08:06:47;;;;;;;10.75;5.90;;;;;;;-144.05;76.34;57086.72;4977361;28;20117;-80
2023/11/22 08:09:16;;;;;;;12.05;5.82;;;;;;;-144.05;76.27;57105.84;4977948;28;20027;-79
2023/11/22 08:11:42;;;;;;;11.20;6.78;;;;;;;-144.05;75.99;57082.47;4980483;28;20027;-79
2023/11/22 08:14:08;;;;;;;11.43;6.88;;;;;;;-144.05;75.16;57086.72;4992045;28;20063;-80
2023/11/22 08:16:38;;;;;;;13.02;5.85;;;;;;;-144.05;74.63;57065.47;5003887;28;20023;-81
2023/11/22 08:19:05;;;;;;;12.75;7.03;;;;;;;-144.05;73.82;57082.47;5031129;28;20118;-80
2023/11/22 08:21:32;;;;;;;13.48;6.60;;;;;;;-144.05;72.59;57071.84;4977765;28;20528;-80
2023/11/22 08:23:59;;;;;;;15.55;7.45;;;;;;;-144.05;71.65;57065.47;4983437;28;20058;-80
2023/11/22 08:26:25;;;;;;;13.85;6.45;;;;;;;-144.05;70.34;57073.97;5022150;28;20031;-80
2023/11/22 08:28:52;;;;;;;9.57;5.57;;;;;;;-144.05;70.68;57067.59;4976540;28;20144;-80
2023/11/22 08:31:18;;;;;;;13.23;6.05;;;;;;;-144.05;70.63;57095.22;4977151;28;20042;-82
2023/11/22 08:33:44;;;;;;;10.90;5.85;;;;;;;-144.05;69.92;57063.34;4991378;28;20229;-82
2023/11/22 08:36:10;;;;;;;10.50;5.78;;;;;;;-144.05;69.22;57080.34;4978591;28;20052;-77
2023/11/22 08:38:41;;;;;;;12.90;6.25;;;;;;;-144.05;69.13;57080.34;4977220;28;20027;-79
2023/11/22 08:41:11;;;;;;;7.80;5.53;;;4.70;99.90;;;-144.05;68.69;57052.75;4992576;28;20038;-79
2023/11/22 08:43:37;;;;;;;8.55;5.45;;;;;;;-144.05;68.13;57059.09;4977060;28;20081;-78
2023/11/22 08:46:04;;;;;;;11.38;4.75;;;;;;;-144.05;68.50;57078.22;4977201;28;20030;-80
2023/11/22 08:48:31;;;;;;;14.48;6.68;;;;;;;-144.05;66.33;57050.63;4975944;28;20102;-78
2023/11/22 08:50:58;;;;;;;14.65;6.60;;;;;;;-144.05;66.62;57069.72;4989898;28;20025;-79
2023/11/22 08:53:24;;;;;;;9.80;6.07;;;;;;;-144.05;66.92;57090.97;4977217;28;20057;-80
2023/11/22 08:55:53;;;;;;;9.18;5.00;;;;;;;-144.05;66.17;57078.22;4977344;28;20711;-80
2023/11/22 08:58:18;;;;;;;9.93;5.63;;;6.40;99.90;;;-144.05;64.62;57065.47;5000817;28;20035;-79
2023/11/22 09:00:45;;;;;;;10.25;5.70;;;6.30;99.90;;;-144.05;64.51;57067.59;4977012;28;20448;-80
2023/11/22 09:03:12;;;;;;;10.10;5.57;;;2.40;99.90;;;-144.05;62.92;57042.13;4993203;28;20025;-81
2023/11/22 09:05:46;;;;;;;10.90;5.13;;;2.00;99.90;;;-144.05;63.02;57044.25;5000426;28;20419;-80
2023/11/22 09:08:15;;;;;;;7.25;3.90;;;2.30;99.90;;;-144.05;59.77;57046.38;4993064;28;20163;-81
2023/11/22 09:10:42;;;;;;;6.93;4.20;;;;;;;-144.05;59.39;57052.75;5018343;28;20024;-79
2023/11/22 09:13:12;;;;;;;7.13;3.67;;;6.10;99.90;;;-144.05;58.77;57071.84;4992186;28;20056;-80
2023/11/22 09:15:38;;;;;;;5.93;4.13;;;2.30;99.90;;;-144.05;58.59;57071.84;4977142;28;20462;-80
2023/11/22 09:18:06;;;;;;;7.22;3.75;;;6.20;99.90;;;-144.05;58.16;57095.22;5003996;28;20043;-80
2023/11/22 09:20:32;;;;;;;6.05;3.35;;;6.40;99.90;;;-144.05;56.98;57073.97;5000167;28;20037;-80
2023/11/22 09:22:58;;;;;;;5.95;3.13;;;6.80;99.90;;;-144.05;55.62;57046.38;4976923;28;20038;-79
2023/11/22 09:25:30;;;;;;;7.20;3.38;;;6.80;99.90;;;-144.05;55.77;57063.34;4999564;28;20061;-81
2023/11/22 09:28:00;;;;;;;4.95;3.40;;;6.70;99.90;;;-144.05;56.25;57033.63;4998965;28;20061;-79
2023/11/22 09:30:42;;;;;;;7.32;4.15;;;2.50;99.90;;;-144.05;55.62;57095.22;4977899;28;20034;-80
2023/11/22 09:33:10;;;;;;;5.97;3.78;;;2.10;99.90;;;-144.05;55.68;57090.97;4997289;28;20044;-80
2023/11/22 09:35:38;;;;;;;7.60;3.67;;;6.80;99.90;;;-144.05;55.45;57061.22;5028708;28;20020;-81
2023/11/22 09:38:11;;;;;;;6.25;3.85;;;6.80;99.90;;;-144.05;55.16;57059.09;4975500;28;20023;-80
2023/11/22 09:40:48;;;;;;;7.47;3.88;;;;;;;-144.05;55.28;57080.34;4977660;28;20153;-81
2023/11/22 09:43:18;;;;;;;7.07;3.67;;;5.60;99.90;;;-144.05;55.67;57052.75;4970716;28;20038;-80
2023/11/22 09:45:45;;;;;;;6.10;3.20;;;5.60;99.90;;;-144.05;55.17;57063.34;5004743;28;20022;-83
2023/11/22 09:48:22;;;;;;;7.38;3.40;;;5.50;99.90;;;-144.05;55.00;57056.97;4975919;28;20487;-80
2023/11/22 09:51:26;;;;;;;5.97;3.35;;;5.30;99.90;;;-144.05;54.68;57069.72;4975836;28;20088;-80
2023/11/22 09:54:07;;;;;;;8.27;3.17;;;5.30;99.90;;;-144.05;55.80;57093.09;4975601;28;20031;-81
2023/11/22 09:56:36;;;;;;;4.40;2.67;;;5.30;99.90;;;-144.05;55.30;57050.63;4975271;28;20019;-80
2023/11/22 09:59:06;;;;;;;5.07;2.95;;;5.20;99.90;;;-144.05;54.48;57059.09;4975402;28;20108;-79
2023/11/22 10:01:36;;;;;;;7.53;3.80;;;;;;;-144.05;55.34;57069.72;5009452;28;20396;-79
2023/11/22 10:04:06;;;;;;;7.95;3.58;;;;;;;-144.05;53.98;57082.47;4978168;28;20025;-80
2023/11/22 10:06:35;;;;;;;4.78;2.85;;;;;;;-144.05;52.99;57073.97;4979723;28;20062;-78
2023/11/22 10:09:07;;;;;;;7.07;3.05;;;;;;;-144.05;53.61;57082.47;4994404;28;20030;-80
2023/11/22 10:11:36;;;;;;;4.45;2.33;;;;;;;-144.05;54.21;57046.38;4989142;28;20376;-80
2023/11/22 10:14:02;;;;;;;4.47;2.90;;;;;;;-144.05;52.51;57082.47;4997514;28;20509;-79
2023/11/22 10:16:29;;;;;;;6.82;2.80;;;;;;;-144.05;53.00;57088.84;4979108;28;20086;-80
2023/11/22 10:18:57;;;;;;;6.03;2.63;;;;;;;-144.05;51.81;57097.34;4977409;28;20104;-80
2023/11/22 10:21:31;;;;;;;5.50;2.58;;;5.60;99.90;;;-144.05;50.34;57048.50;4978748;28;20023;-81
2023/11/22 10:24:03;;;;;;;7.35;3.10;;;5.60;99.90;;;-144.05;50.17;57048.50;4984770;28;20082;-81
2023/11/22 10:26:29;;;;;;;7.45;3.53;;;;;;;-144.05;51.15;57084.59;5014155;28;20040;-78
2023/11/22 10:28:57;;;;;;;8.35;3.55;;;5.70;99.90;;;-144.05;51.91;57071.84;4982995;28;20037;-78
2023/11/22 10:31:25;;;;;;;8.07;4.10;;;5.80;99.90;;;-144.05;52.45;57069.72;5002391;28;20570;-79
2023/11/22 10:33:53;;;;;;;7.47;3.05;;;;;;;-144.05;51.94;57050.63;4976590;28;20130;-80
2023/11/22 10:36:20;;;;;;;5.65;2.97;;;;;;;-144.05;49.14;57052.75;5001722;28;20043;-78
2023/11/22 10:38:48;;;;;;;7.13;2.85;;;;;;;-144.05;48.16;57029.38;4991130;28;20027;-81
2023/11/22 10:41:14;;;;;;;5.13;2.83;;;;;;;-144.05;49.38;57050.63;4986224;28;20112;-79
2023/11/22 10:43:44;;;;;;;6.18;3.03;;;;;;;-144.05;50.27;57054.88;4992325;28;20042;-80
2023/11/22 10:46:12;;;;;;;6.30;3.33;;;;;;;-144.05;50.67;57035.75;4978841;28;20027;-80
2023/11/22 10:48:39;;;;;;;5.22;3.30;;;6.30;99.90;;;-144.05;51.06;57040.00;4975862;28;20027;-79
2023/11/22 10:51:06;;;;;;;7.68;4.55;;;6.20;99.90;;;-144.05;49.44;57046.38;4973451;28;20507;-83
2023/11/22 10:53:40;;;;;;;6.03;4.00;;;6.30;99.90;;;-144.05;50.02;57054.88;4994013;28;20341;-80
2023/11/22 10:56:19;;;;;;;6.65;3.88;;;6.20;99.90;;;-144.05;49.02;57067.59;4974278;28;20023;-80
2023/11/22 10:58:56;;;;;;;10.18;4.45;;;6.10;99.90;;;-144.05;49.33;57059.09;4976064;28;20053;-80
2023/11/22 11:01:29;;;;;;;10.73;4.00;;;5.90;99.90;;;-144.05;49.21;57054.88;5054380;28;20031;-82